sensor_id;sensor_type;location;lat;lon;timestamp;pressure;altitude;pressure_sealevel;temperature;humidity
78016;BME280;67223;51.102;5.882;2023-04-01T00:01:04;99171.34;;;9.52;86.68
78016;BME280;67223;51.102;5.882;2023-04-01T00:03:31;99167.56;;;9.63;86.73
78016;BME280;67223;51.102;5.882;2023-04-01T00:05:58;99160.75;;;9.69;86.20
78016;BME280;67223;51.102;5.882;2023-04-01T00:08:24;99158.78;;;9.71;86.31
78016;BME280;67223;51.102;5.882;2023-04-01T00:10:51;99173.25;;;9.68;86.85
78016;BME280;67223;51.102;5.882;2023-04-01T00:13:16;99165.38;;;9.59;86.29
78016;BME280;67223;51.102;5.882;2023-04-01T00:15:42;99161.47;;;9.79;86.41
78016;BME280;67223;51.102;5.882;2023-04-01T00:18:08;99170.91;;;9.65;86.13
78016;BME280;67223;51.102;5.882;2023-04-01T00:20:34;99175.06;;;9.60;86.52
78016;BME280;67223;51.102;5.882;2023-04-01T00:22:59;99178.72;;;9.67;85.99
78016;BME280;67223;51.102;5.882;2023-04-01T00:25:25;99174.56;;;9.64;86.13
78016;BME280;67223;51.102;5.882;2023-04-01T00:27:50;99170.09;;;9.65;86.76
78016;BME280;67223;51.102;5.882;2023-04-01T00:30:16;99171.75;;;9.66;86.00
78016;BME280;67223;51.102;5.882;2023-04-01T00:32:42;99173.59;;;9.65;85.99
78016;BME280;67223;51.102;5.882;2023-04-01T00:35:08;99173.63;;;9.47;86.46
78016;BME280;67223;51.102;5.882;2023-04-01T00:37:36;99166.44;;;9.66;85.90
78016;BME280;67223;51.102;5.882;2023-04-01T00:40:04;99165.88;;;9.62;86.01
78016;BME280;67223;51.102;5.882;2023-04-01T00:42:30;99167.53;;;9.55;85.90
78016;BME280;67223;51.102;5.882;2023-04-01T00:44:56;99155.34;;;9.52;85.59
78016;BME280;67223;51.102;5.882;2023-04-01T00:47:23;99158.38;;;9.58;86.18
78016;BME280;67223;51.102;5.882;2023-04-01T00:49:51;99152.38;;;9.56;85.86
78016;BME280;67223;51.102;5.882;2023-04-01T00:52:23;99162.31;;;9.45;86.04
78016;BME280;67223;51.102;5.882;2023-04-01T00:54:55;99157.38;;;9.59;85.55
78016;BME280;67223;51.102;5.882;2023-04-01T00:57:31;99171.66;;;9.49;86.32
78016;BME280;67223;51.102;5.882;2023-04-01T01:00:00;99168.63;;;9.44;86.00
78016;BME280;67223;51.102;5.882;2023-04-01T01:02:25;99167.47;;;9.47;86.45
78016;BME280;67223;51.102;5.882;2023-04-01T01:04:51;99164.31;;;9.43;86.60
78016;BME280;67223;51.102;5.882;2023-04-01T01:07:32;99166.47;;;9.40;86.76
78016;BME280;67223;51.102;5.882;2023-04-01T01:15:26;99161.63;;;9.43;86.95
78016;BME280;67223;51.102;5.882;2023-04-01T01:18:16;99159.97;;;9.42;86.83
78016;BME280;67223;51.102;5.882;2023-04-01T01:23:54;99154.22;;;9.55;87.20
78016;BME280;67223;51.102;5.882;2023-04-01T01:35:24;99155.28;;;9.36;87.39
78016;BME280;67223;51.102;5.882;2023-04-01T01:37:55;99167.19;;;9.50;86.73
78016;BME280;67223;51.102;5.882;2023-04-01T01:40:21;99152.97;;;9.41;86.94
78016;BME280;67223;51.102;5.882;2023-04-01T01:42:51;99165.72;;;9.56;87.25
78016;BME280;67223;51.102;5.882;2023-04-01T01:45:21;99170.13;;;9.47;87.50
78016;BME280;67223;51.102;5.882;2023-04-01T01:47:49;99162.91;;;9.31;87.81
78016;BME280;67223;51.102;5.882;2023-04-01T01:50:17;99178.22;;;9.29;87.88
78016;BME280;67223;51.102;5.882;2023-04-01T01:52:43;99175.22;;;9.32;87.97
78016;BME280;67223;51.102;5.882;2023-04-01T01:55:30;99179.03;;;9.30;88.10
78016;BME280;67223;51.102;5.882;2023-04-01T02:01:07;99186.91;;;9.31;88.45
78016;BME280;67223;51.102;5.882;2023-04-01T02:03:37;99183.47;;;9.47;88.09
78016;BME280;67223;51.102;5.882;2023-04-01T02:06:06;99184.50;;;9.54;87.87
78016;BME280;67223;51.102;5.882;2023-04-01T02:11:12;99191.75;;;9.36;88.79
78016;BME280;67223;51.102;5.882;2023-04-01T02:13:52;99183.44;;;9.39;88.56
78016;BME280;67223;51.102;5.882;2023-04-01T02:16:33;99181.19;;;9.26;88.77
78016;BME280;67223;51.102;5.882;2023-04-01T02:19:00;99186.53;;;9.26;88.59
78016;BME280;67223;51.102;5.882;2023-04-01T02:21:31;99177.34;;;9.21;88.65
78016;BME280;67223;51.102;5.882;2023-04-01T02:23:58;99184.63;;;9.19;89.05
78016;BME280;67223;51.102;5.882;2023-04-01T02:26:26;99185.00;;;9.24;89.01
78016;BME280;67223;51.102;5.882;2023-04-01T02:28:53;99189.69;;;9.30;88.98
78016;BME280;67223;51.102;5.882;2023-04-01T02:31:20;99193.88;;;9.32;89.09
78016;BME280;67223;51.102;5.882;2023-04-01T02:33:47;99193.81;;;9.24;89.20
78016;BME280;67223;51.102;5.882;2023-04-01T02:36:14;99204.84;;;9.29;89.26
78016;BME280;67223;51.102;5.882;2023-04-01T02:38:42;99209.59;;;9.18;89.22
78016;BME280;67223;51.102;5.882;2023-04-01T02:41:08;99208.13;;;9.23;89.35
78016;BME280;67223;51.102;5.882;2023-04-01T02:43:34;99209.66;;;9.26;89.10
78016;BME280;67223;51.102;5.882;2023-04-01T02:45:59;99203.31;;;9.27;88.91
78016;BME280;67223;51.102;5.882;2023-04-01T02:48:26;99204.53;;;9.32;89.17
78016;BME280;67223;51.102;5.882;2023-04-01T02:50:51;99210.16;;;9.29;88.70
78016;BME280;67223;51.102;5.882;2023-04-01T02:53:17;99207.28;;;9.48;89.07
78016;BME280;67223;51.102;5.882;2023-04-01T02:55:42;99205.91;;;9.36;88.82
78016;BME280;67223;51.102;5.882;2023-04-01T02:58:07;99211.22;;;9.36;88.72
78016;BME280;67223;51.102;5.882;2023-04-01T03:03:09;99204.38;;;9.34;89.27
78016;BME280;67223;51.102;5.882;2023-04-01T03:05:34;99210.88;;;9.31;88.77
78016;BME280;67223;51.102;5.882;2023-04-01T03:08:00;99217.19;;;9.30;88.89
78016;BME280;67223;51.102;5.882;2023-04-01T03:10:25;99209.84;;;9.32;89.09
78016;BME280;67223;51.102;5.882;2023-04-01T03:12:51;99217.69;;;9.34;88.46
78016;BME280;67223;51.102;5.882;2023-04-01T03:15:16;99216.56;;;9.36;88.85
78016;BME280;67223;51.102;5.882;2023-04-01T03:17:42;99216.00;;;9.33;88.73
78016;BME280;67223;51.102;5.882;2023-04-01T03:20:08;99219.22;;;9.36;89.31
78016;BME280;67223;51.102;5.882;2023-04-01T03:22:35;99224.34;;;9.30;88.59
78016;BME280;67223;51.102;5.882;2023-04-01T03:25:02;99228.88;;;9.37;88.57
78016;BME280;67223;51.102;5.882;2023-04-01T03:27:28;99235.50;;;9.33;88.61
78016;BME280;67223;51.102;5.882;2023-04-01T03:29:53;99232.84;;;9.33;88.84
78016;BME280;67223;51.102;5.882;2023-04-01T03:32:19;99232.25;;;9.22;89.00
78016;BME280;67223;51.102;5.882;2023-04-01T03:34:44;99229.50;;;9.31;89.33
78016;BME280;67223;51.102;5.882;2023-04-01T03:37:10;99233.31;;;9.29;89.19
78016;BME280;67223;51.102;5.882;2023-04-01T03:39:35;99235.28;;;9.27;89.03
78016;BME280;67223;51.102;5.882;2023-04-01T03:42:01;99238.97;;;9.26;89.09
78016;BME280;67223;51.102;5.882;2023-04-01T03:44:30;99244.19;;;9.35;89.11
78016;BME280;67223;51.102;5.882;2023-04-01T03:46:56;99243.13;;;9.28;88.77
78016;BME280;67223;51.102;5.882;2023-04-01T03:49:21;99239.38;;;9.39;89.22
78016;BME280;67223;51.102;5.882;2023-04-01T03:51:46;99244.69;;;9.39;88.80
78016;BME280;67223;51.102;5.882;2023-04-01T03:54:12;99243.03;;;9.38;88.65
78016;BME280;67223;51.102;5.882;2023-04-01T03:56:37;99254.19;;;9.41;88.79
78016;BME280;67223;51.102;5.882;2023-04-01T03:59:05;99249.03;;;9.40;88.64
78016;BME280;67223;51.102;5.882;2023-04-01T04:01:31;99243.34;;;9.61;87.95
78016;BME280;67223;51.102;5.882;2023-04-01T04:03:57;99255.50;;;9.37;88.04
78016;BME280;67223;51.102;5.882;2023-04-01T04:06:23;99249.47;;;9.53;87.58
78016;BME280;67223;51.102;5.882;2023-04-01T04:08:49;99260.25;;;9.51;87.32
78016;BME280;67223;51.102;5.882;2023-04-01T04:11:15;99248.56;;;9.44;87.37
78016;BME280;67223;51.102;5.882;2023-04-01T04:13:42;99261.56;;;9.47;87.37
78016;BME280;67223;51.102;5.882;2023-04-01T04:16:09;99260.69;;;9.39;87.42
78016;BME280;67223;51.102;5.882;2023-04-01T04:18:35;99262.69;;;9.19;88.19
78016;BME280;67223;51.102;5.882;2023-04-01T04:21:01;99269.72;;;9.20;88.67
78016;BME280;67223;51.102;5.882;2023-04-01T04:23:26;99273.13;;;9.30;88.45
78016;BME280;67223;51.102;5.882;2023-04-01T04:26:13;99269.91;;;9.27;88.09
78016;BME280;67223;51.102;5.882;2023-04-01T04:28:39;99275.56;;;9.24;88.56
78016;BME280;67223;51.102;5.882;2023-04-01T04:31:04;99276.75;;;9.29;88.52
78016;BME280;67223;51.102;5.882;2023-04-01T04:33:31;99275.59;;;9.32;88.28
78016;BME280;67223;51.102;5.882;2023-04-01T04:35:58;99284.38;;;9.24;88.56
78016;BME280;67223;51.102;5.882;2023-04-01T04:38:24;99288.63;;;9.17;88.79
78016;BME280;67223;51.102;5.882;2023-04-01T04:40:50;99285.50;;;9.22;88.65
78016;BME280;67223;51.102;5.882;2023-04-01T04:43:16;99279.97;;;9.15;88.68
78016;BME280;67223;51.102;5.882;2023-04-01T04:45:42;99292.59;;;9.31;88.07
78016;BME280;67223;51.102;5.882;2023-04-01T04:48:09;99295.78;;;9.34;87.93
78016;BME280;67223;51.102;5.882;2023-04-01T04:50:35;99287.81;;;9.17;88.50
78016;BME280;67223;51.102;5.882;2023-04-01T04:53:02;99289.94;;;9.31;88.03
78016;BME280;67223;51.102;5.882;2023-04-01T04:55:27;99295.78;;;9.34;87.67
78016;BME280;67223;51.102;5.882;2023-04-01T04:57:53;99305.00;;;9.40;87.37
78016;BME280;67223;51.102;5.882;2023-04-01T05:00:18;99306.06;;;9.73;86.64
78016;BME280;67223;51.102;5.882;2023-04-01T05:02:44;99306.19;;;9.45;87.17
78016;BME280;67223;51.102;5.882;2023-04-01T05:05:09;99304.66;;;9.43;86.87
78016;BME280;67223;51.102;5.882;2023-04-01T05:07:36;99302.19;;;9.67;86.21
78016;BME280;67223;51.102;5.882;2023-04-01T05:10:01;99309.47;;;9.39;86.38
78016;BME280;67223;51.102;5.882;2023-04-01T05:12:26;99306.19;;;9.45;86.38
78016;BME280;67223;51.102;5.882;2023-04-01T05:14:54;99321.19;;;9.46;86.66
78016;BME280;67223;51.102;5.882;2023-04-01T05:17:20;99323.22;;;9.52;86.18
78016;BME280;67223;51.102;5.882;2023-04-01T05:19:46;99325.78;;;9.36;86.14
78016;BME280;67223;51.102;5.882;2023-04-01T05:22:11;99320.19;;;9.47;86.32
78016;BME280;67223;51.102;5.882;2023-04-01T05:24:37;99326.22;;;9.49;86.67
78016;BME280;67223;51.102;5.882;2023-04-01T05:27:02;99327.97;;;9.41;86.23
78016;BME280;67223;51.102;5.882;2023-04-01T05:29:27;99324.16;;;9.61;85.57
78016;BME280;67223;51.102;5.882;2023-04-01T05:31:53;99331.44;;;9.59;86.05
78016;BME280;67223;51.102;5.882;2023-04-01T05:34:18;99336.13;;;9.39;86.63
78016;BME280;67223;51.102;5.882;2023-04-01T05:36:44;99334.75;;;9.35;86.28
78016;BME280;67223;51.102;5.882;2023-04-01T05:39:10;99332.88;;;9.71;85.60
78016;BME280;67223;51.102;5.882;2023-04-01T05:41:36;99337.06;;;9.30;86.34
78016;BME280;67223;51.102;5.882;2023-04-01T05:44:01;99337.66;;;9.24;86.94
78016;BME280;67223;51.102;5.882;2023-04-01T05:46:27;99333.53;;;9.30;87.29
78016;BME280;67223;51.102;5.882;2023-04-01T05:48:52;99333.53;;;9.30;87.26
78016;BME280;67223;51.102;5.882;2023-04-01T05:51:18;99343.13;;;9.40;86.72
78016;BME280;67223;51.102;5.882;2023-04-01T05:53:43;99349.91;;;9.35;87.04
78016;BME280;67223;51.102;5.882;2023-04-01T05:56:09;99340.19;;;9.26;87.65
78016;BME280;67223;51.102;5.882;2023-04-01T05:58:36;99344.53;;;9.52;87.29
78016;BME280;67223;51.102;5.882;2023-04-01T06:01:07;99357.59;;;9.20;87.91
78016;BME280;67223;51.102;5.882;2023-04-01T06:03:33;99353.84;;;9.48;86.94
78016;BME280;67223;51.102;5.882;2023-04-01T06:05:58;99347.00;;;9.46;87.09
78016;BME280;67223;51.102;5.882;2023-04-01T06:08:26;99362.59;;;9.59;86.52
78016;BME280;67223;51.102;5.882;2023-04-01T06:18:50;99376.81;;;9.67;84.61
78016;BME280;67223;51.102;5.882;2023-04-01T06:24:10;99377.22;;;9.98;84.06
78016;BME280;67223;51.102;5.882;2023-04-01T06:26:58;99381.63;;;9.64;85.50
78016;BME280;67223;51.102;5.882;2023-04-01T06:30:00;99385.31;;;9.45;86.05
78016;BME280;67223;51.102;5.882;2023-04-01T06:35:40;99402.25;;;10.23;83.16
78016;BME280;67223;51.102;5.882;2023-04-01T06:38:20;99400.06;;;10.52;81.81
78016;BME280;67223;51.102;5.882;2023-04-01T06:46:47;99407.75;;;10.97;79.46
78016;BME280;67223;51.102;5.882;2023-04-01T06:54:32;99408.25;;;12.07;75.28
78016;BME280;67223;51.102;5.882;2023-04-01T06:57:20;99426.78;;;12.33;75.50
78016;BME280;67223;51.102;5.882;2023-04-01T06:59:47;99424.44;;;12.30;73.78
78016;BME280;67223;51.102;5.882;2023-04-01T07:02:48;99419.53;;;10.78;79.33
78016;BME280;67223;51.102;5.882;2023-04-01T07:05:19;99425.44;;;10.56;78.94
78016;BME280;67223;51.102;5.882;2023-04-01T07:07:48;99434.94;;;10.51;80.08
78016;BME280;67223;51.102;5.882;2023-04-01T07:12:58;99439.28;;;10.86;78.61
78016;BME280;67223;51.102;5.882;2023-04-01T07:15:36;99439.59;;;11.33;77.94
78016;BME280;67223;51.102;5.882;2023-04-01T07:18:21;99440.94;;;11.37;78.01
78016;BME280;67223;51.102;5.882;2023-04-01T07:20:51;99452.06;;;10.40;79.31
78016;BME280;67223;51.102;5.882;2023-04-01T07:23:23;99450.41;;;10.47;81.15
78016;BME280;67223;51.102;5.882;2023-04-01T07:26:00;99447.88;;;10.71;80.33
78016;BME280;67223;51.102;5.882;2023-04-01T07:28:30;99456.81;;;10.96;78.31
78016;BME280;67223;51.102;5.882;2023-04-01T07:31:35;99465.59;;;10.47;80.13
78016;BME280;67223;51.102;5.882;2023-04-01T07:34:28;99461.50;;;11.44;78.68
78016;BME280;67223;51.102;5.882;2023-04-01T07:50:27;99479.31;;;11.28;78.33
78016;BME280;67223;51.102;5.882;2023-04-01T08:01:25;99506.66;;;10.10;81.50
78016;BME280;67223;51.102;5.882;2023-04-01T08:09:10;99515.53;;;11.22;81.42
78016;BME280;67223;51.102;5.882;2023-04-01T08:12:03;99516.72;;;11.70;77.05
78016;BME280;67223;51.102;5.882;2023-04-01T08:14:36;99526.63;;;10.67;80.65
78016;BME280;67223;51.102;5.882;2023-04-01T08:22:44;99531.50;;;11.98;75.23
78016;BME280;67223;51.102;5.882;2023-04-01T08:25:19;99540.22;;;10.82;77.75
78016;BME280;67223;51.102;5.882;2023-04-01T08:30:53;99545.78;;;10.63;79.08
78016;BME280;67223;51.102;5.882;2023-04-01T08:33:31;99542.47;;;11.29;77.06
78016;BME280;67223;51.102;5.882;2023-04-01T08:38:34;99553.94;;;10.87;78.74
78016;BME280;67223;51.102;5.882;2023-04-01T08:46:19;99564.13;;;12.10;75.69
78016;BME280;67223;51.102;5.882;2023-04-01T08:49:01;99565.22;;;11.41;77.47
78016;BME280;67223;51.102;5.882;2023-04-01T08:51:41;99572.66;;;11.21;77.62
78016;BME280;67223;51.102;5.882;2023-04-01T08:57:01;99580.13;;;13.23;73.57
78016;BME280;67223;51.102;5.882;2023-04-01T09:02:43;99588.50;;;10.63;78.60
78016;BME280;67223;51.102;5.882;2023-04-01T09:08:10;99605.13;;;10.57;79.87
78016;BME280;67223;51.102;5.882;2023-04-01T09:22:58;99615.56;;;11.45;75.92
78016;BME280;67223;51.102;5.882;2023-04-01T09:25:41;99618.09;;;10.52;79.87
78016;BME280;67223;51.102;5.882;2023-04-01T09:39:35;99627.34;;;11.01;78.45
78016;BME280;67223;51.102;5.882;2023-04-01T09:50:18;99638.38;;;12.07;75.87
78016;BME280;67223;51.102;5.882;2023-04-01T10:04:24;99659.91;;;11.04;77.92
78016;BME280;67223;51.102;5.882;2023-04-01T10:16:15;99662.34;;;13.30;73.73
78016;BME280;67223;51.102;5.882;2023-04-01T10:24:34;99672.84;;;12.19;75.62
78016;BME280;67223;51.102;5.882;2023-04-01T10:39:17;99684.28;;;13.42;71.81
78016;BME280;67223;51.102;5.882;2023-04-01T10:56:59;99698.03;;;12.58;74.60
78016;BME280;67223;51.102;5.882;2023-04-01T11:00:06;99694.72;;;12.88;72.92
78016;BME280;67223;51.102;5.882;2023-04-01T11:05:42;99695.25;;;12.18;73.29
78016;BME280;67223;51.102;5.882;2023-04-01T11:09:14;99701.03;;;12.47;72.46
78016;BME280;67223;51.102;5.882;2023-04-01T11:12:31;99705.72;;;12.53;72.54
78016;BME280;67223;51.102;5.882;2023-04-01T11:15:26;99711.59;;;12.73;72.20
78016;BME280;67223;51.102;5.882;2023-04-01T11:18:06;99714.78;;;13.57;70.75
78016;BME280;67223;51.102;5.882;2023-04-01T11:26:26;99713.22;;;12.33;73.76
78016;BME280;67223;51.102;5.882;2023-04-01T11:29:07;99723.16;;;12.81;73.32
78016;BME280;67223;51.102;5.882;2023-04-01T11:32:02;99720.34;;;12.99;71.53
78016;BME280;67223;51.102;5.882;2023-04-01T11:34:51;99733.63;;;11.41;76.79
78016;BME280;67223;51.102;5.882;2023-04-01T11:37:39;99735.13;;;11.35;78.50
78016;BME280;67223;51.102;5.882;2023-04-01T11:42:54;99730.03;;;12.92;72.83
78016;BME280;67223;51.102;5.882;2023-04-01T11:53:44;99740.94;;;12.99;71.47
78016;BME280;67223;51.102;5.882;2023-04-01T12:10:16;99766.47;;;14.45;69.66
78016;BME280;67223;51.102;5.882;2023-04-01T12:12:53;99776.75;;;12.73;71.83
78016;BME280;67223;51.102;5.882;2023-04-01T12:47:57;99799.22;;;13.86;70.46
78016;BME280;67223;51.102;5.882;2023-04-01T12:50:57;99807.41;;;14.08;68.68
78016;BME280;67223;51.102;5.882;2023-04-01T13:05:40;99823.78;;;12.76;72.28
78016;BME280;67223;51.102;5.882;2023-04-01T13:08:40;99822.38;;;12.56;73.49
78016;BME280;67223;51.102;5.882;2023-04-01T13:19:38;99831.72;;;12.93;71.60
78016;BME280;67223;51.102;5.882;2023-04-01T13:22:23;99845.03;;;12.69;72.38
78016;BME280;67223;51.102;5.882;2023-04-01T13:25:02;99850.72;;;11.98;76.21
78016;BME280;67223;51.102;5.882;2023-04-01T13:27:44;99847.91;;;13.58;73.28
78016;BME280;67223;51.102;5.882;2023-04-01T13:33:30;99853.94;;;13.68;70.20
78016;BME280;67223;51.102;5.882;2023-04-01T13:44:15;99875.69;;;12.33;74.44
78016;BME280;67223;51.102;5.882;2023-04-01T13:52:49;99865.50;;;13.53;71.22
78016;BME280;67223;51.102;5.882;2023-04-01T14:01:25;99878.25;;;12.92;71.94
78016;BME280;67223;51.102;5.882;2023-04-01T14:12:06;99898.56;;;12.61;73.47
78016;BME280;67223;51.102;5.882;2023-04-01T14:22:37;99895.00;;;13.69;70.13
78016;BME280;67223;51.102;5.882;2023-04-01T14:25:38;99906.13;;;13.08;70.19
78016;BME280;67223;51.102;5.882;2023-04-01T14:30:55;99917.31;;;13.03;70.30
78016;BME280;67223;51.102;5.882;2023-04-01T14:33:41;99913.03;;;12.76;71.43
78016;BME280;67223;51.102;5.882;2023-04-01T14:39:00;99902.66;;;13.31;69.88
78016;BME280;67223;51.102;5.882;2023-04-01T14:41:48;99915.28;;;13.71;68.26
78016;BME280;67223;51.102;5.882;2023-04-01T14:47:09;99922.34;;;13.06;69.87
78016;BME280;67223;51.102;5.882;2023-04-01T14:49:46;99922.19;;;12.32;71.73
78016;BME280;67223;51.102;5.882;2023-04-01T14:52:23;99928.28;;;11.90;75.88
78016;BME280;67223;51.102;5.882;2023-04-01T14:54:50;99935.00;;;11.77;75.80
78016;BME280;67223;51.102;5.882;2023-04-01T14:57:30;99933.50;;;12.51;74.08
78016;BME280;67223;51.102;5.882;2023-04-01T15:00:21;99931.06;;;12.66;73.68
78016;BME280;67223;51.102;5.882;2023-04-01T15:08:58;99942.75;;;12.31;72.44
78016;BME280;67223;51.102;5.882;2023-04-01T15:11:48;99945.66;;;11.41;75.37
78016;BME280;67223;51.102;5.882;2023-04-01T15:17:05;99957.38;;;12.71;73.07
78016;BME280;67223;51.102;5.882;2023-04-01T15:30:52;99961.69;;;11.23;77.71
78016;BME280;67223;51.102;5.882;2023-04-01T15:38:52;99984.00;;;12.72;72.23
78016;BME280;67223;51.102;5.882;2023-04-01T15:44:01;99982.13;;;11.60;75.87
78016;BME280;67223;51.102;5.882;2023-04-01T15:46:44;99981.31;;;11.77;74.81
78016;BME280;67223;51.102;5.882;2023-04-01T15:49:44;99982.91;;;11.70;76.11
78016;BME280;67223;51.102;5.882;2023-04-01T15:55:24;99998.19;;;11.33;78.21
78016;BME280;67223;51.102;5.882;2023-04-01T16:01:04;99992.53;;;11.36;78.95
78016;BME280;67223;51.102;5.882;2023-04-01T16:06:29;100003.03;;;11.74;77.96
78016;BME280;67223;51.102;5.882;2023-04-01T16:11:52;100008.97;;;10.96;80.16
78016;BME280;67223;51.102;5.882;2023-04-01T16:19:48;100020.19;;;10.53;81.97
78016;BME280;67223;51.102;5.882;2023-04-01T16:22:32;100030.47;;;10.48;82.37
78016;BME280;67223;51.102;5.882;2023-04-01T16:25:19;100020.88;;;11.91;79.49
78016;BME280;67223;51.102;5.882;2023-04-01T16:27:54;100018.97;;;12.19;76.98
78016;BME280;67223;51.102;5.882;2023-04-01T16:30:42;100038.22;;;11.25;78.72
78016;BME280;67223;51.102;5.882;2023-04-01T16:36:09;100042.34;;;11.37;77.81
78016;BME280;67223;51.102;5.882;2023-04-01T16:38:43;100043.06;;;11.56;77.68
78016;BME280;67223;51.102;5.882;2023-04-01T16:43:52;100058.75;;;10.77;78.26
78016;BME280;67223;51.102;5.882;2023-04-01T16:46:32;100049.38;;;11.65;78.09
78016;BME280;67223;51.102;5.882;2023-04-01T16:49:15;100046.38;;;10.86;78.40
78016;BME280;67223;51.102;5.882;2023-04-01T16:54:47;100061.50;;;11.05;79.20
78016;BME280;67223;51.102;5.882;2023-04-01T16:58:03;100069.66;;;10.38;80.36
78016;BME280;67223;51.102;5.882;2023-04-01T17:06:03;100081.16;;;10.57;80.98
78016;BME280;67223;51.102;5.882;2023-04-01T17:11:08;100079.91;;;10.42;81.80
78016;BME280;67223;51.102;5.882;2023-04-01T17:14:04;100086.50;;;10.57;81.25
78016;BME280;67223;51.102;5.882;2023-04-01T17:22:31;100099.53;;;10.03;84.02
78016;BME280;67223;51.102;5.882;2023-04-01T17:25:02;100100.59;;;10.21;83.58
78016;BME280;67223;51.102;5.882;2023-04-01T17:27:54;100107.84;;;10.09;84.13
78016;BME280;67223;51.102;5.882;2023-04-01T17:30:35;100109.44;;;10.50;82.50
78016;BME280;67223;51.102;5.882;2023-04-01T17:36:03;100108.56;;;10.69;81.44
78016;BME280;67223;51.102;5.882;2023-04-01T17:47:52;100129.59;;;9.95;83.71
78016;BME280;67223;51.102;5.882;2023-04-01T17:50:30;100132.25;;;9.95;83.74
78016;BME280;67223;51.102;5.882;2023-04-01T17:56:02;100139.41;;;9.94;83.72
78016;BME280;67223;51.102;5.882;2023-04-01T17:58:50;100141.19;;;9.75;84.21
78016;BME280;67223;51.102;5.882;2023-04-01T18:03:57;100144.81;;;9.64;85.02
78016;BME280;67223;51.102;5.882;2023-04-01T18:12:50;100156.69;;;9.90;84.23
78016;BME280;67223;51.102;5.882;2023-04-01T18:23:11;100169.59;;;9.45;85.86
78016;BME280;67223;51.102;5.882;2023-04-01T18:25:41;100172.50;;;9.42;85.95
78016;BME280;67223;51.102;5.882;2023-04-01T18:28:19;100174.28;;;9.72;85.99
78016;BME280;67223;51.102;5.882;2023-04-01T18:30:54;100175.81;;;9.56;85.78
78016;BME280;67223;51.102;5.882;2023-04-01T18:36:21;100188.75;;;9.39;86.37
78016;BME280;67223;51.102;5.882;2023-04-01T18:39:07;100198.31;;;9.42;86.68
78016;BME280;67223;51.102;5.882;2023-04-01T18:44:30;100201.81;;;9.42;86.79
78016;BME280;67223;51.102;5.882;2023-04-01T18:49:52;100209.63;;;9.34;87.05
78016;BME280;67223;51.102;5.882;2023-04-01T18:52:24;100214.13;;;9.34;86.86
78016;BME280;67223;51.102;5.882;2023-04-01T18:57:27;100212.75;;;9.39;87.07
78016;BME280;67223;51.102;5.882;2023-04-01T19:00:20;100210.78;;;9.41;87.06
78016;BME280;67223;51.102;5.882;2023-04-01T19:03:11;100229.38;;;9.32;87.53
78016;BME280;67223;51.102;5.882;2023-04-01T19:05:40;100222.97;;;9.34;87.16
78016;BME280;67223;51.102;5.882;2023-04-01T19:08:32;100230.50;;;9.29;87.57
78016;BME280;67223;51.102;5.882;2023-04-01T19:11:20;100236.59;;;9.41;87.19
78016;BME280;67223;51.102;5.882;2023-04-01T19:25:25;100244.84;;;9.38;88.07
78016;BME280;67223;51.102;5.882;2023-04-01T19:28:00;100252.66;;;9.30;88.20
78016;BME280;67223;51.102;5.882;2023-04-01T19:35:34;100257.72;;;9.33;88.06
78016;BME280;67223;51.102;5.882;2023-04-01T19:46:23;100258.16;;;9.59;88.15
78016;BME280;67223;51.102;5.882;2023-04-01T19:49:09;100263.56;;;9.47;88.75
78016;BME280;67223;51.102;5.882;2023-04-01T19:57:46;100292.63;;;9.50;89.04
78016;BME280;67223;51.102;5.882;2023-04-01T20:00:35;100284.81;;;9.59;89.30
78016;BME280;67223;51.102;5.882;2023-04-01T20:12:07;100320.75;;;9.64;89.27
78016;BME280;67223;51.102;5.882;2023-04-01T20:20:00;100331.94;;;9.58;88.86
78016;BME280;67223;51.102;5.882;2023-04-01T20:25:23;100348.28;;;9.65;88.98
78016;BME280;67223;51.102;5.882;2023-04-01T20:28:02;100349.63;;;9.80;89.59
78016;BME280;67223;51.102;5.882;2023-04-01T20:44:52;100378.66;;;9.41;89.10
78016;BME280;67223;51.102;5.882;2023-04-01T20:50:29;100395.78;;;9.39;88.90
78016;BME280;67223;51.102;5.882;2023-04-01T20:53:01;100401.22;;;9.37;89.24
78016;BME280;67223;51.102;5.882;2023-04-01T20:58:48;100413.97;;;9.34;88.75
78016;BME280;67223;51.102;5.882;2023-04-01T21:01:32;100412.19;;;9.55;89.10
78016;BME280;67223;51.102;5.882;2023-04-01T21:04:27;100425.22;;;9.37;88.69
78016;BME280;67223;51.102;5.882;2023-04-01T21:12:35;100433.97;;;9.28;88.86
78016;BME280;67223;51.102;5.882;2023-04-01T21:18:27;100434.72;;;9.19;88.93
78016;BME280;67223;51.102;5.882;2023-04-01T21:24:05;100446.84;;;9.12;88.90
78016;BME280;67223;51.102;5.882;2023-04-01T21:36:23;100481.50;;;9.01;88.95
78016;BME280;67223;51.102;5.882;2023-04-01T21:39:12;100485.88;;;8.91;89.22
78016;BME280;67223;51.102;5.882;2023-04-01T21:47:18;100496.28;;;8.94;88.87
78016;BME280;67223;51.102;5.882;2023-04-01T22:03:30;100523.75;;;8.83;88.09
78016;BME280;67223;51.102;5.882;2023-04-01T22:06:17;100527.00;;;8.87;87.89
78016;BME280;67223;51.102;5.882;2023-04-01T22:11:46;100547.34;;;8.77;87.63
78016;BME280;67223;51.102;5.882;2023-04-01T22:16:59;100554.63;;;8.75;87.64
78016;BME280;67223;51.102;5.882;2023-04-01T22:28:10;100580.63;;;8.60;88.12
78016;BME280;67223;51.102;5.882;2023-04-01T22:30:50;100587.16;;;8.56;88.25
78016;BME280;67223;51.102;5.882;2023-04-01T22:41:35;100608.50;;;8.43;88.64
78016;BME280;67223;51.102;5.882;2023-04-01T22:47:07;100611.44;;;8.16;88.52
78016;BME280;67223;51.102;5.882;2023-04-01T22:49:41;100609.88;;;8.25;88.74
78016;BME280;67223;51.102;5.882;2023-04-01T22:52:31;100610.94;;;8.11;88.34
78016;BME280;67223;51.102;5.882;2023-04-01T22:55:08;100626.38;;;8.06;88.04
78016;BME280;67223;51.102;5.882;2023-04-01T22:57:42;100625.56;;;8.17;87.92
78016;BME280;67223;51.102;5.882;2023-04-01T23:02:59;100635.69;;;8.12;88.09
78016;BME280;67223;51.102;5.882;2023-04-01T23:05:26;100640.91;;;8.13;87.87
78016;BME280;67223;51.102;5.882;2023-04-01T23:11:03;100651.38;;;8.04;87.58
78016;BME280;67223;51.102;5.882;2023-04-01T23:13:34;100662.63;;;8.07;87.32
78016;BME280;67223;51.102;5.882;2023-04-01T23:16:04;100662.25;;;8.01;87.27